Terminal Aerodrome Forecast
Issued by NWS

Home | Current Version | Previous Version | Text Only | Print | Product List | Glossary On
Versions: 1 2 3 4 5 6 7 8 9 10 11 12 13 14 15 16 17 18
000
FTUS43 KSGF 262019 AAA
TAFJLN
TAF AMD
KJLN 262019Z 2620/2718 VRB05KT P6SM SCT030 BKN070
      TEMPO 2621/2623 4SM -TSRA BR BKN030CB
     FM262300 08005KT P6SM VCTS BKN040CB
     FM270600 00000KT P6SM BKN250 PROB30 2706/2707 4SM TSRA OVC040CB
     FM271200 VRB03KT P6SM BKN250
     FM271300 VRB03KT P6SM BKN250=

USA.gov is the U.S. government's official web portal to all federal, state and local government web resources and services.